Time;durP1;ratioP1;P1;durP2;ratioP2;P2;SDS_P1;SDS_P2;PMS_P1;PMS_P2;Temp;Humidity;BMP_temperature;BMP_pressure;BME280_temperature;BME280_humidity;BME280_pressure;Samples;Min_cycle;Max_cycle;Signal;HPM_P1;HPM_P2
2022/12/13 00:02:24;;;;;;;21.23;12.07;;;1.30;99.90;;;;;;5021814;28;20230;-78
2022/12/13 00:05:14;;;;;;;17.23;11.00;;;1.30;99.90;;;;;;5027071;28;20303;-79
2022/12/13 00:08:03;;;;;;;18.33;10.60;;;1.30;99.90;;;;;;5031793;28;20287;-78
2022/12/13 00:10:59;;;;;;;16.10;11.30;;;1.30;99.90;;;;;;5035607;28;20359;-78
2022/12/13 00:13:48;;;;;;;18.20;11.03;;;1.30;99.90;;;;;;5038121;28;20252;-78
2022/12/13 00:16:37;;;;;;;15.63;10.63;;;1.30;99.90;;;;;;5022168;28;20678;-77
2022/12/13 00:19:27;;;;;;;15.40;10.20;;;1.20;99.90;;;;;;5024009;28;20218;-77
2022/12/13 00:22:16;;;;;;;15.63;9.60;;;1.20;99.90;;;;;;5056334;28;20242;-78
2022/12/13 00:25:07;;;;;;;15.77;10.00;;;1.20;99.90;;;;;;5045244;28;20587;-79
2022/12/13 00:27:56;;;;;;;16.33;9.97;;;1.20;99.90;;;;;;5048810;28;20216;-78
2022/12/13 00:30:44;;;;;;;15.67;10.10;;;1.20;99.90;;;;;;5041952;28;20221;-79
2022/12/13 00:33:33;;;;;;;15.33;9.60;;;1.20;99.90;;;;;;5062882;28;20209;-77
2022/12/13 00:36:23;;;;;;;15.90;10.20;;;1.20;99.90;;;;;;5044736;28;20293;-78
2022/12/13 00:39:13;;;;;;;16.07;10.17;;;1.30;99.90;;;;;;5053337;28;20225;-79
2022/12/13 00:42:01;;;;;;;17.47;9.90;;;1.20;99.90;;;;;;5058018;28;20220;-79
2022/12/13 00:44:50;;;;;;;15.33;9.47;;;1.10;99.90;;;;;;5053617;28;20218;-76
2022/12/13 00:47:39;;;;;;;16.60;9.97;;;1.10;99.90;;;;;;5044096;28;20214;-75
2022/12/13 00:50:28;;;;;;;13.00;8.50;;;1.30;99.90;;;;;;5049295;28;20225;-76
2022/12/13 00:53:18;;;;;;;15.10;9.03;;;1.30;99.90;;;;;;5043048;28;20216;-76
2022/12/13 00:56:11;;;;;;;14.70;8.93;;;1.30;99.90;;;;;;5058640;28;20230;-75
2022/12/13 00:59:00;;;;;;;14.77;9.03;;;1.30;99.90;;;;;;5052903;28;21281;-76
2022/12/13 01:01:49;;;;;;;14.97;9.10;;;1.20;99.90;;;;;;5041532;28;20260;-76
2022/12/13 01:04:38;;;;;;;14.00;8.73;;;1.20;99.90;;;;;;5044454;28;20220;-76
2022/12/13 01:07:27;;;;;;;15.77;9.50;;;1.20;99.90;;;;;;5042794;28;20221;-77
2022/12/13 01:10:17;;;;;;;15.00;9.07;;;1.20;99.90;;;;;;5043841;28;20217;-77
2022/12/13 01:13:05;;;;;;;15.33;9.43;;;1.40;99.90;;;;;;5046895;28;20225;-77
2022/12/13 01:15:54;;;;;;;14.90;9.30;;;1.30;99.90;;;;;;5043629;28;20233;-78
2022/12/13 01:18:43;;;;;;;15.13;9.03;;;1.30;99.90;;;;;;5056235;28;20720;-75
2022/12/13 01:21:31;;;;;;;14.73;9.23;;;1.40;99.90;;;;;;5041662;28;20256;-76
2022/12/13 01:24:23;;;;;;;13.33;9.03;;;1.50;99.90;;;;;;5035599;28;20708;-77
2022/12/13 01:27:13;;;;;;;18.13;9.20;;;1.50;99.90;;;;;;5035910;28;20233;-77
2022/12/13 01:30:02;;;;;;;13.70;8.87;;;1.40;99.90;;;;;;5018743;28;21003;-78
2022/12/13 01:32:50;;;;;;;13.93;8.93;;;1.40;99.90;;;;;;5025398;28;20740;-76
2022/12/13 01:35:39;;;;;;;16.23;9.53;;;1.40;99.90;;;;;;5037233;28;20260;-77
2022/12/13 01:38:27;;;;;;;13.43;8.87;;;1.40;99.90;;;;;;5039930;28;20225;-76
2022/12/13 01:41:18;;;;;;;11.77;8.60;;;1.30;99.90;;;;;;5026254;28;20237;-74
2022/12/13 01:44:51;;;;;;;15.27;9.40;;;1.30;99.90;;;;;;5020399;28;20221;-77
2022/12/13 01:47:44;;;;;;;14.07;8.90;;;1.30;99.90;;;;;;5040679;28;20221;-76
2022/12/13 01:50:37;;;;;;;15.33;9.07;;;1.30;99.90;;;;;;5038334;28;20213;-77
2022/12/13 01:53:29;;;;;;;16.03;9.97;;;1.40;99.90;;;;;;5026604;28;20225;-78
2022/12/13 01:56:20;;;;;;;15.03;9.57;;;1.40;99.90;;;;;;5032289;28;20221;-75
2022/12/13 01:59:10;;;;;;;15.97;9.47;;;1.30;99.90;;;;;;5040750;28;20218;-77
2022/12/13 02:01:59;;;;;;;15.13;10.03;;;1.40;99.90;;;;;;5026937;28;20230;-77
2022/12/13 02:04:56;;;;;;;16.50;10.17;;;1.40;99.90;;;;;;5035881;28;20225;-77
2022/12/13 02:07:47;;;;;;;14.13;9.50;;;1.40;99.90;;;;;;5023931;28;20232;-77
2022/12/13 02:10:35;;;;;;;16.17;10.00;;;1.40;99.90;;;;;;5027827;28;20225;-78
2022/12/13 02:13:24;;;;;;;16.40;10.60;;;1.40;99.90;;;;;;5038837;28;20229;-76
2022/12/13 02:16:23;;;;;;;14.63;10.07;;;1.50;99.90;;;;;;5041234;28;20210;-73
2022/12/13 02:19:41;;;;;;;18.00;10.30;;;1.60;99.90;;;;;;5040356;28;20228;-76
2022/12/13 02:23:03;;;;;;;18.20;10.27;;;1.40;99.90;;;;;;5053913;28;20398;-78
2022/12/13 02:26:07;;;;;;;14.43;9.77;;;1.30;99.90;;;;;;5044820;28;20224;-77
2022/12/13 02:29:10;;;;;;;13.17;9.07;;;1.50;99.90;;;;;;5057630;28;20221;-76
2022/12/13 02:32:05;;;;;;;15.40;9.43;;;1.40;99.90;;;;;;5061559;28;20960;-77
2022/12/13 02:35:00;;;;;;;15.80;9.20;;;1.40;99.90;;;;;;5058401;28;20237;-76
2022/12/13 02:37:58;;;;;;;13.00;9.03;;;1.40;99.90;;;;;;5042748;28;20225;-76
2022/12/13 02:40:54;;;;;;;14.37;8.83;;;1.30;99.90;;;;;;5057842;28;20363;-78
2022/12/13 02:43:53;;;;;;;15.53;9.77;;;1.40;99.90;;;;;;5058657;28;20243;-76
2022/12/13 02:46:53;;;;;;;14.13;9.43;;;1.40;99.90;;;;;;5036343;28;20229;-77
2022/12/13 02:49:47;;;;;;;16.33;9.93;;;1.40;99.90;;;;;;5054292;28;20565;-77
2022/12/13 02:52:39;;;;;;;16.10;10.30;;;1.40;99.90;;;;;;5044491;28;20568;-77
2022/12/13 02:55:28;;;;;;;14.73;9.77;;;1.40;99.90;;;;;;5037687;28;20218;-77
2022/12/13 02:58:22;;;;;;;16.47;10.73;;;1.40;99.90;;;;;;5058449;28;20229;-76
2022/12/13 03:01:24;;;;;;;14.20;9.93;;;1.50;99.90;;;;;;5040805;28;20224;-78
2022/12/13 03:04:29;;;;;;;13.33;9.60;;;1.30;99.90;;;;;;5048882;28;20217;-77
2022/12/13 03:07:26;;;;;;;15.87;9.97;;;1.30;99.90;;;;;;5054930;28;20226;-78
2022/12/13 03:10:20;;;;;;;15.77;9.70;;;1.30;99.90;;;;;;5040272;28;20219;-78
2022/12/13 03:13:35;;;;;;;15.73;10.33;;;1.30;99.90;;;;;;5044396;28;20233;-77
2022/12/13 03:16:33;;;;;;;16.73;10.23;;;1.20;99.90;;;;;;5056641;28;20225;-78
2022/12/13 03:19:22;;;;;;;15.77;10.43;;;1.30;99.90;;;;;;5056794;28;20216;-77
2022/12/13 03:22:10;;;;;;;15.10;10.60;;;1.50;99.90;;;;;;5057525;28;20963;-77
2022/12/13 03:25:00;;;;;;;16.73;10.97;;;1.50;99.90;;;;;;5055246;28;20233;-77
2022/12/13 03:27:49;;;;;;;15.70;10.20;;;1.60;99.90;;;;;;5054909;28;20222;-76
2022/12/13 03:30:38;;;;;;;17.47;11.50;;;1.70;99.90;;;;;;5044708;28;20237;-78
2022/12/13 03:33:27;;;;;;;19.53;10.83;;;1.50;99.90;;;;;;5042399;28;20239;-76
2022/12/13 03:36:17;;;;;;;15.80;10.33;;;1.60;99.90;;;;;;5058320;28;20233;-77
2022/12/13 03:39:06;;;;;;;15.13;10.47;;;1.60;99.90;;;;;;5058808;28;20252;-77
2022/12/13 03:41:57;;;;;;;18.43;11.33;;;1.60;99.90;;;;;;5054724;28;20233;-78
2022/12/13 03:44:45;;;;;;;18.40;11.40;;;1.50;99.90;;;;;;5061556;28;20270;-77
2022/12/13 03:47:34;;;;;;;17.13;11.73;;;1.50;99.90;;;;;;5058318;28;20213;-76
2022/12/13 03:50:23;;;;;;;18.13;12.10;;;1.60;99.90;;;;;;5056451;28;20241;-78
2022/12/13 03:53:15;;;;;;;18.07;12.67;;;1.60;99.90;;;;;;5053433;28;20704;-78
2022/12/13 03:56:19;;;;;;;17.37;12.03;;;1.60;99.90;;;;;;5036630;28;20236;-79
2022/12/13 03:59:09;;;;;;;17.20;12.50;;;1.60;99.90;;;;;;5045755;28;20254;-77
2022/12/13 04:01:58;;;;;;;18.70;12.70;;;1.60;99.90;;;;;;5058798;28;20700;-78
2022/12/13 04:04:46;;;;;;;21.07;13.27;;;1.60;99.90;;;;;;5058409;28;20216;-78
2022/12/13 04:07:35;;;;;;;19.47;13.73;;;1.60;99.90;;;;;;5060378;28;20225;-78
2022/12/13 04:10:24;;;;;;;20.97;13.17;;;1.50;99.90;;;;;;5049066;28;20221;-78
2022/12/13 04:16:21;;;;;;;20.27;13.43;;;1.50;99.90;;;;;;5060604;28;20226;-78
2022/12/13 04:19:10;;;;;;;22.57;14.40;;;1.60;99.90;;;;;;5045239;28;20229;-79
2022/12/13 04:21:59;;;;;;;21.70;14.40;;;1.60;99.90;;;;;;5041120;28;20233;-78
2022/12/13 04:24:47;;;;;;;21.17;13.77;;;1.60;99.90;;;;;;5059906;28;20221;-78
2022/12/13 04:27:37;;;;;;;21.47;13.47;;;1.60;99.90;;;;;;5061509;28;20220;-79
2022/12/13 04:30:26;;;;;;;23.30;14.47;;;1.40;99.90;;;;;;5056635;28;20225;-78
2022/12/13 04:33:16;;;;;;;20.57;14.00;;;1.30;99.90;;;;;;5048704;28;20734;-77
2022/12/13 04:36:05;;;;;;;19.97;14.20;;;1.40;99.90;;;;;;5066701;28;20221;-78
2022/12/13 04:38:54;;;;;;;19.87;14.20;;;1.40;99.90;;;;;;5055011;28;20220;-77
2022/12/13 04:41:48;;;;;;;25.37;14.30;;;1.40;99.90;;;;;;5052393;28;20854;-77
2022/12/13 04:44:36;;;;;;;22.70;14.87;;;1.50;99.90;;;;;;5048118;28;20229;-77
2022/12/13 04:47:28;;;;;;;22.30;14.33;;;1.50;99.90;;;;;;5053649;28;20216;-77
2022/12/13 04:50:19;;;;;;;20.60;14.17;;;1.60;99.90;;;;;;5039872;28;21036;-77
2022/12/13 04:53:14;;;;;;;22.43;13.80;;;1.60;99.90;;;;;;5042459;28;20241;-78
2022/12/13 04:56:03;;;;;;;21.73;15.30;;;1.50;99.90;;;;;;5058569;28;20229;-77
2022/12/13 04:58:52;;;;;;;23.77;15.57;;;1.50;99.90;;;;;;5062752;28;20237;-78
2022/12/13 05:01:41;;;;;;;22.03;15.17;;;1.40;99.90;;;;;;5029752;28;20217;-78
2022/12/13 05:04:30;;;;;;;21.43;14.97;;;1.50;99.90;;;;;;5056834;28;20241;-77
2022/12/13 05:07:22;;;;;;;21.93;14.97;;;1.40;99.90;;;;;;5034648;28;20226;-77
2022/12/13 05:10:11;;;;;;;22.30;14.70;;;1.30;99.90;;;;;;5057193;28;20223;-78
2022/12/13 05:13:20;;;;;;;22.73;14.50;;;1.40;99.90;;;;;;5046636;28;20227;-78
2022/12/13 05:16:09;;;;;;;25.30;15.10;;;1.30;99.90;;;;;;5047158;28;20219;-78
2022/12/13 05:18:58;;;;;;;22.87;14.80;;;1.30;99.90;;;;;;5059274;28;20354;-77
2022/12/13 05:21:46;;;;;;;22.07;14.27;;;1.30;99.90;;;;;;5042404;28;20221;-78
2022/12/13 05:24:36;;;;;;;20.33;14.20;;;1.20;99.90;;;;;;5045135;28;20221;-78
2022/12/13 05:27:25;;;;;;;18.67;13.77;;;1.30;99.90;;;;;;5061976;28;20290;-79
2022/12/13 05:30:14;;;;;;;23.87;14.53;;;1.30;99.90;;;;;;5054385;28;20256;-78
2022/12/13 05:33:03;;;;;;;19.53;14.10;;;1.40;99.90;;;;;;5039844;28;20229;-77
2022/12/13 05:35:51;;;;;;;25.50;15.80;;;1.30;99.90;;;;;;5056078;28;20253;-77
2022/12/13 05:38:46;;;;;;;19.27;13.73;;;1.30;99.90;;;;;;5058094;28;20218;-77
2022/12/13 05:41:37;;;;;;;18.90;13.60;;;1.40;99.90;;;;;;5057839;28;20216;-77
2022/12/13 05:44:26;;;;;;;19.00;13.33;;;1.40;99.90;;;;;;5036621;28;20382;-77
2022/12/13 05:47:14;;;;;;;23.83;13.37;;;1.40;99.90;;;;;;5042789;28;20214;-77
2022/12/13 05:50:04;;;;;;;23.50;14.60;;;1.40;99.90;;;;;;5041464;28;20225;-75
2022/12/13 05:52:52;;;;;;;21.00;13.30;;;1.40;99.90;;;;;;5041311;28;20346;-75
2022/12/13 05:55:42;;;;;;;19.07;13.97;;;1.50;99.90;;;;;;5055435;28;20217;-75
2022/12/13 05:58:32;;;;;;;20.47;13.43;;;1.40;99.90;;;;;;5046806;28;20602;-74
2022/12/13 06:01:23;;;;;;;21.17;12.73;;;1.30;99.90;;;;;;5059546;28;20233;-76
2022/12/13 06:04:12;;;;;;;22.80;13.57;;;1.30;99.90;;;;;;5048046;28;20240;-75
2022/12/13 06:07:11;;;;;;;20.07;12.40;;;1.20;99.90;;;;;;5040172;28;20225;-77
2022/12/13 06:09:59;;;;;;;18.00;12.03;;;1.30;99.90;;;;;;5043846;28;20230;-76
2022/12/13 06:12:57;;;;;;;18.40;11.90;;;1.40;99.90;;;;;;5057805;28;20230;-76
2022/12/13 06:15:50;;;;;;;17.73;12.07;;;1.30;99.90;;;;;;5058429;28;20591;-72
2022/12/13 06:18:39;;;;;;;20.20;12.20;;;1.30;99.90;;;;;;5045620;28;20256;-79
2022/12/13 06:21:27;;;;;;;23.97;14.37;;;1.30;99.90;;;;;;5041170;28;20236;-76
2022/12/13 06:24:33;;;;;;;19.90;12.33;;;1.30;99.90;;;;;;5051758;28;20239;-75
2022/12/13 06:27:22;;;;;;;19.47;12.10;;;1.10;99.90;;;;;;5059341;28;20224;-75
2022/12/13 06:30:12;;;;;;;18.60;12.83;;;1.00;99.90;;;;;;5043421;28;20299;-77
2022/12/13 06:33:03;;;;;;;17.43;12.07;;;1.00;99.90;;;;;;5048546;28;20239;-77
2022/12/13 06:35:52;;;;;;;17.00;11.77;;;1.10;99.90;;;;;;5045138;28;20231;-77
2022/12/13 06:38:41;;;;;;;24.17;17.00;;;1.10;99.90;;;;;;5037969;28;20695;-77
2022/12/13 06:41:31;;;;;;;20.13;15.03;;;1.00;99.90;;;;;;5056323;28;20850;-78
2022/12/13 06:44:20;;;;;;;16.53;11.63;;;1.00;99.90;;;;;;5039744;28;20225;-76
2022/12/13 06:47:09;;;;;;;16.07;11.77;;;1.10;99.90;;;;;;5039692;28;20591;-78
2022/12/13 06:50:19;;;;;;;15.83;11.23;;;1.10;99.90;;;;;;5038343;28;20220;-78
2022/12/13 06:53:07;;;;;;;15.43;10.47;;;1.10;99.90;;;;;;5054202;28;20722;-77
2022/12/13 06:55:56;;;;;;;14.83;10.40;;;1.00;99.90;;;;;;5043465;28;20275;-78
2022/12/13 06:58:45;;;;;;;15.53;11.57;;;0.90;99.90;;;;;;5054116;28;20225;-78
2022/12/13 07:01:33;;;;;;;14.07;10.37;;;1.00;99.90;;;;;;5047541;28;20234;-79
2022/12/13 07:04:25;;;;;;;14.67;10.27;;;1.00;99.90;;;;;;5047600;28;20363;-77
2022/12/13 07:07:19;;;;;;;16.73;10.20;;;1.20;99.90;;;;;;5040339;28;20224;-78
2022/12/13 07:10:09;;;;;;;16.47;10.13;;;1.20;99.90;;;;;;5040593;28;20216;-79
2022/12/13 07:13:09;;;;;;;15.97;10.60;;;1.10;99.90;;;;;;5043790;28;20312;-79
2022/12/13 07:15:58;;;;;;;16.20;9.97;;;1.00;99.90;;;;;;5039706;28;20225;-80
2022/12/13 07:18:53;;;;;;;35.73;12.63;;;0.90;99.90;;;;;;5043209;28;20217;-79
2022/12/13 07:21:48;;;;;;;14.50;9.57;;;1.00;99.90;;;;;;5036005;28;20271;-78
2022/12/13 07:24:38;;;;;;;13.17;9.57;;;0.80;99.90;;;;;;5052482;28;20747;-77
2022/12/13 07:27:27;;;;;;;18.30;10.00;;;0.90;99.90;;;;;;5036499;28;20244;-78
2022/12/13 07:30:16;;;;;;;13.10;9.03;;;1.00;99.90;;;;;;5050423;28;20232;-76
2022/12/13 07:33:06;;;;;;;15.63;9.47;;;1.00;99.90;;;;;;5040774;28;20225;-80
2022/12/13 07:36:00;;;;;;;13.77;9.27;;;1.00;99.90;;;;;;5058384;28;20222;-78
2022/12/13 07:38:51;;;;;;;14.40;9.13;;;1.10;99.90;;;;;;5058843;28;20239;-79
2022/12/13 07:41:42;;;;;;;13.07;9.27;;;1.00;99.90;;;;;;5060112;28;20230;-78
2022/12/13 07:44:31;;;;;;;12.23;9.07;;;1.00;99.90;;;;;;5057010;28;20232;-78
2022/12/13 07:47:20;;;;;;;11.23;8.43;;;1.10;99.90;;;;;;5040063;28;20232;-80
2022/12/13 07:50:10;;;;;;;17.93;9.47;;;1.00;99.90;;;;;;5041048;28;22042;-77
2022/12/13 07:53:13;;;;;;;14.40;9.80;;;0.90;99.90;;;;;;5044888;28;20213;-79
2022/12/13 07:56:02;;;;;;;15.50;11.20;;;0.80;99.90;;;;;;5053829;28;20225;-81
2022/12/13 07:58:52;;;;;;;15.37;10.93;;;1.00;99.90;;;;;;5057022;28;21023;-78
2022/12/13 08:01:41;;;;;;;14.43;9.43;;;1.10;99.90;;;;;;5058489;28;20220;-81
2022/12/13 08:04:30;;;;;;;15.60;10.53;;;0.90;99.90;;;;;;5041761;28;20274;-79
2022/12/13 08:07:25;;;;;;;14.40;9.47;;;0.90;99.90;;;;;;5036668;28;20231;-80
2022/12/13 08:10:15;;;;;;;15.90;10.63;;;1.10;99.90;;;;;;5059586;28;20224;-81
2022/12/13 08:13:04;;;;;;;16.00;9.83;;;1.10;99.90;;;;;;5043719;28;20224;-81
2022/12/13 08:16:00;;;;;;;14.43;10.23;;;1.10;99.90;;;;;;5044036;28;20222;-80
2022/12/13 08:18:49;;;;;;;15.30;10.10;;;1.00;99.90;;;;;;5052155;28;20235;-80
2022/12/13 08:21:39;;;;;;;14.13;10.20;;;1.00;99.90;;;;;;5061471;28;20240;-81
2022/12/13 08:24:48;;;;;;;15.93;10.27;;;0.90;99.90;;;;;;5048624;28;20224;-79
2022/12/13 08:27:36;;;;;;;16.57;10.60;;;0.90;99.90;;;;;;5052369;28;20587;-82
2022/12/13 08:30:32;;;;;;;15.00;11.07;;;1.00;99.90;;;;;;5042703;28;20572;-81
2022/12/13 08:33:22;;;;;;;15.30;10.80;;;1.00;99.90;;;;;;5042772;28;20220;-81
2022/12/13 08:36:14;;;;;;;15.33;10.53;;;1.10;99.90;;;;;;5047295;28;20221;-82
2022/12/13 08:39:04;;;;;;;19.57;11.23;;;1.00;99.90;;;;;;5045197;28;20221;-81
2022/12/13 08:41:53;;;;;;;14.17;10.00;;;0.90;99.90;;;;;;5055863;28;20270;-79
2022/12/13 08:44:42;;;;;;;14.67;10.83;;;1.00;99.90;;;;;;5042029;28;20234;-80
2022/12/13 08:47:30;;;;;;;15.87;11.23;;;1.00;99.90;;;;;;5048307;28;20224;-81
2022/12/13 08:50:25;;;;;;;14.80;10.57;;;1.00;99.90;;;;;;5038450;28;20221;-80
2022/12/13 08:53:14;;;;;;;16.13;11.07;;;0.80;99.90;;;;;;5045481;28;20271;-81
2022/12/13 08:56:17;;;;;;;15.07;10.83;;;0.80;99.90;;;;;;5056269;28;20224;-81
2022/12/13 08:59:06;;;;;;;15.03;10.83;;;1.00;99.90;;;;;;5040475;28;20227;-82
2022/12/13 09:01:57;;;;;;;14.90;10.87;;;1.00;99.90;;;;;;5048864;28;20235;-83
2022/12/13 09:04:53;;;;;;;16.57;10.83;;;1.00;99.90;;;;;;5057089;28;20227;-85
2022/12/13 09:07:43;;;;;;;17.60;10.90;;;1.10;99.90;;;;;;5040863;28;20801;-83
2022/12/13 09:10:32;;;;;;;20.43;12.00;;;1.20;99.90;;;;;;5059533;28;20235;-83
2022/12/13 09:13:26;;;;;;;14.27;10.27;;;1.20;99.90;;;;;;5043748;28;20224;-84
2022/12/13 09:16:22;;;;;;;15.77;10.87;;;1.30;99.90;;;;;;5047476;28;20244;-83
2022/12/13 09:19:12;;;;;;;17.13;10.30;;;1.20;99.90;;;;;;5047056;28;20253;-83
2022/12/13 09:22:13;;;;;;;16.90;10.00;;;1.20;99.90;;;;;;5036575;28;20217;-83
2022/12/13 09:25:05;;;;;;;17.83;10.47;;;1.10;99.90;;;;;;5024177;28;21396;-84
2022/12/13 09:28:03;;;;;;;22.70;10.20;;;1.10;99.90;;;;;;5026824;28;20228;-84
2022/12/13 09:30:52;;;;;;;15.43;10.83;;;1.10;99.90;;;;;;5025161;28;20232;-82
2022/12/13 09:33:41;;;;;;;15.17;10.43;;;1.00;99.90;;;;;;5043321;28;20217;-82
2022/12/13 09:36:30;;;;;;;16.20;10.03;;;1.00;99.90;;;;;;5023918;28;20223;-83
2022/12/13 09:39:18;;;;;;;16.43;10.23;;;1.10;99.90;;;;;;5025420;28;20224;-83
2022/12/13 09:42:18;;;;;;;14.30;9.93;;;1.10;99.90;;;;;;5024407;28;20229;-84
2022/12/13 09:45:11;;;;;;;17.10;10.00;;;1.20;99.90;;;;;;5027033;28;20244;-84
2022/12/13 09:48:16;;;;;;;14.97;10.57;;;1.10;99.90;;;;;;5037479;28;20232;-84
2022/12/13 09:51:11;;;;;;;16.50;9.93;;;1.10;99.90;;;;;;5026340;28;20729;-84
2022/12/13 09:54:19;;;;;;;14.10;10.20;;;1.10;99.90;;;;;;5026534;28;20220;-84
2022/12/13 09:57:18;;;;;;;14.77;9.47;;;1.20;99.90;;;;;;5031683;28;20212;-85
2022/12/13 10:00:24;;;;;;;14.17;9.97;;;0.90;99.90;;;;;;5045899;28;20233;-82
2022/12/13 10:03:15;;;;;;;17.53;11.80;;;1.10;99.90;;;;;;5030887;28;20225;-82
2022/12/13 10:06:15;;;;;;;14.47;10.07;;;1.20;99.90;;;;;;5025503;28;20712;-82
2022/12/13 10:09:14;;;;;;;14.67;10.20;;;1.00;99.90;;;;;;5028701;28;20230;-83
2022/12/13 10:12:03;;;;;;;13.47;9.93;;;1.10;99.90;;;;;;5027729;28;20236;-82
2022/12/13 10:14:57;;;;;;;16.67;10.50;;;1.10;99.90;;;;;;5023306;28;20499;-83
2022/12/13 10:17:48;;;;;;;17.20;11.23;;;1.20;99.90;;;;;;5037312;28;20266;-83
2022/12/13 10:20:43;;;;;;;13.43;10.27;;;1.20;99.90;;;;;;5043186;28;20233;-83
2022/12/13 10:23:32;;;;;;;14.83;10.17;;;1.20;99.90;;;;;;5040545;28;20599;-83
2022/12/13 10:26:41;;;;;;;15.73;9.73;;;1.10;99.90;;;;;;5023637;28;20961;-84
2022/12/13 10:29:30;;;;;;;16.83;10.33;;;1.10;99.90;;;;;;5036167;28;21542;-83
2022/12/13 10:32:20;;;;;;;13.37;10.10;;;1.00;99.90;;;;;;5023773;28;20240;-83
2022/12/13 10:35:23;;;;;;;15.67;10.70;;;1.00;99.90;;;;;;5025727;28;20222;-82
2022/12/13 10:38:26;;;;;;;16.40;9.83;;;1.30;99.90;;;;;;5022424;28;20225;-81
2022/12/13 10:41:32;;;;;;;15.17;10.00;;;1.10;99.90;;;;;;5019340;28;20217;-81
2022/12/13 10:44:24;;;;;;;26.20;16.03;;;0.90;99.90;;;;;;5015404;28;20235;-83
2022/12/13 10:47:17;;;;;;;25.30;15.40;;;1.00;99.90;;;;;;5032225;28;20295;-81
2022/12/13 10:50:23;;;;;;;18.10;11.33;;;1.00;99.90;;;;;;5031946;28;20800;-81
2022/12/13 10:53:19;;;;;;;62.40;13.43;;;1.00;99.90;;;;;;5019897;28;20237;-80
2022/12/13 10:56:10;;;;;;;34.90;11.60;;;0.60;99.90;;;;;;5020458;28;20281;-80
2022/12/13 10:59:11;;;;;;;92.23;16.27;;;0.90;99.90;;;;;;5020205;28;20221;-80
2022/12/13 11:02:28;;;;;;;61.27;13.97;;;0.90;99.90;;;;;;5026502;28;20979;-78
2022/12/13 11:05:25;;;;;;;17.93;10.63;;;0.90;99.90;;;;;;5039918;28;20229;-80
2022/12/13 11:08:20;;;;;;;15.40;10.27;;;0.70;99.90;;;;;;5022257;28;20254;-79
2022/12/13 11:11:11;;;;;;;16.93;10.87;;;0.70;99.90;;;;;;5040623;28;20225;-79
2022/12/13 11:14:02;;;;;;;16.70;10.63;;;0.80;99.90;;;;;;5019420;28;21862;-80
2022/12/13 11:16:55;;;;;;;16.10;10.20;;;0.90;99.90;;;;;;5025231;28;20209;-80
2022/12/13 11:19:48;;;;;;;14.30;10.07;;;0.80;99.90;;;;;;5023539;28;20227;-80
2022/12/13 11:22:39;;;;;;;20.03;11.60;;;0.90;99.90;;;;;;5045378;28;20223;-82
2022/12/13 11:25:34;;;;;;;17.40;11.33;;;1.00;99.90;;;;;;5062370;28;20252;-82
2022/12/13 11:28:39;;;;;;;28.10;12.27;;;1.00;99.90;;;;;;5049767;28;20219;-79
2022/12/13 11:31:35;;;;;;;22.33;10.67;;;1.40;99.90;;;;;;5044145;28;20220;-80
2022/12/13 11:34:31;;;;;;;17.63;11.10;;;1.30;99.90;;;;;;5057954;28;20220;-79
2022/12/13 11:37:28;;;;;;;18.50;10.97;;;1.30;99.90;;;;;;5042633;28;20228;-79
2022/12/13 11:40:24;;;;;;;18.77;11.17;;;1.10;99.90;;;;;;5061150;28;20247;-80
2022/12/13 11:43:29;;;;;;;16.07;10.77;;;1.20;99.90;;;;;;5061044;28;20217;-80
2022/12/13 11:46:22;;;;;;;19.10;11.00;;;1.30;99.90;;;;;;5056411;28;20232;-81
2022/12/13 11:49:16;;;;;;;18.40;11.37;;;1.30;99.90;;;;;;5044872;28;20221;-81
2022/12/13 11:52:14;;;;;;;15.50;11.13;;;1.20;99.90;;;;;;5027163;28;20843;-81
2022/12/13 11:55:09;;;;;;;17.40;10.97;;;1.00;99.90;;;;;;5038246;28;20226;-82
2022/12/13 11:58:05;;;;;;;16.30;10.93;;;0.80;99.90;;;;;;5057016;28;20595;-82
2022/12/13 12:00:59;;;;;;;16.83;11.53;;;0.90;99.90;;;;;;5044417;28;20232;-82
2022/12/13 12:03:52;;;;;;;16.93;11.13;;;0.80;99.90;;;;;;5054472;28;20312;-81
2022/12/13 12:06:46;;;;;;;19.10;11.73;;;0.90;99.90;;;;;;5050937;28;20828;-80
2022/12/13 12:09:38;;;;;;;17.80;11.70;;;0.70;99.90;;;;;;5040097;28;20351;-81
2022/12/13 12:12:32;;;;;;;21.20;11.93;;;0.80;99.90;;;;;;5042035;28;20286;-80
2022/12/13 12:15:28;;;;;;;20.97;11.87;;;0.90;99.90;;;;;;5041964;28;20340;-81
2022/12/13 12:18:17;;;;;;;21.53;12.47;;;1.00;99.90;;;;;;5040987;28;20231;-79
2022/12/13 12:21:23;;;;;;;18.60;11.87;;;0.90;99.90;;;;;;5040232;28;20251;-79
2022/12/13 12:24:43;;;;;;;19.50;11.80;;;0.80;99.90;;;;;;5055559;28;20224;-79
2022/12/13 12:27:42;;;;;;;18.07;12.10;;;1.00;99.90;;;;;;5055773;28;20255;-79
2022/12/13 12:30:42;;;;;;;19.10;11.40;;;1.10;99.90;;;;;;5047656;28;20836;-80
2022/12/13 12:33:38;;;;;;;20.30;12.03;;;0.80;99.90;;;;;;5061533;28;20274;-80
2022/12/13 12:36:41;;;;;;;17.70;12.30;;;0.80;99.90;;;;;;5045161;28;20355;-81
2022/12/13 12:39:43;;;;;;;19.00;12.13;;;0.70;99.90;;;;;;5044508;28;20313;-81
2022/12/13 12:42:46;;;;;;;22.27;12.67;;;0.60;99.90;;;;;;5043897;28;20221;-81
2022/12/13 12:46:08;;;;;;;19.87;12.17;;;0.60;99.90;;;;;;5064046;28;20216;-80
2022/12/13 12:49:27;;;;;;;20.03;12.67;;;0.50;99.90;;;;;;5045989;28;20220;-82
2022/12/13 12:52:26;;;;;;;16.20;11.37;;;0.60;99.90;;;;;;5063789;28;20224;-81
2022/12/13 12:55:19;;;;;;;19.90;12.17;;;0.40;99.90;;;;;;5050013;28;20354;-81
2022/12/13 12:58:18;;;;;;;25.77;12.80;;;0.40;99.90;;;;;;5045701;28;20416;-80
2022/12/13 13:01:19;;;;;;;18.87;12.00;;;0.40;99.90;;;;;;5059546;28;20220;-81
2022/12/13 13:04:11;;;;;;;19.50;11.77;;;0.40;99.90;;;;;;5039902;28;20219;-81
2022/12/13 13:07:15;;;;;;;20.73;11.97;;;0.40;99.90;;;;;;5039570;28;20536;-78
2022/12/13 13:10:12;;;;;;;20.00;12.57;;;0.40;99.90;;;;;;5043757;28;20335;-80
2022/12/13 13:13:45;;;;;;;18.23;12.20;;;0.50;99.90;;;;;;5044348;28;20227;-80
2022/12/13 13:16:38;;;;;;;21.97;12.77;;;0.60;99.90;;;;;;5059960;28;20224;-80
2022/12/13 13:19:46;;;;;;;20.80;12.63;;;0.70;99.90;;;;;;5055058;28;21134;-81
2022/12/13 13:22:37;;;;;;;18.37;12.40;;;0.70;99.90;;;;;;5048002;28;20246;-78
2022/12/13 13:25:35;;;;;;;20.47;12.70;;;0.60;99.90;;;;;;5051568;28;20239;-79
2022/12/13 13:28:44;;;;;;;19.37;12.47;;;0.70;99.90;;;;;;5048912;28;21013;-81
2022/12/13 13:31:55;;;;;;;23.07;12.83;;;0.80;99.90;;;;;;5040710;28;20335;-84
2022/12/13 13:34:57;;;;;;;21.77;12.73;;;0.80;99.90;;;;;;5043799;28;20770;-80
2022/12/13 13:37:49;;;;;;;19.70;12.67;;;0.60;99.90;;;;;;5053920;28;20568;-80
2022/12/13 13:40:38;;;;;;;17.43;11.30;;;0.80;99.90;;;;;;5044306;28;20770;-81
2022/12/13 13:43:29;;;;;;;18.20;11.63;;;0.70;99.90;;;;;;5040593;28;20267;-82
2022/12/13 13:46:20;;;;;;;18.83;11.77;;;0.80;99.90;;;;;;5058020;28;20715;-79
2022/12/13 13:49:12;;;;;;;19.50;12.03;;;0.80;99.90;;;;;;5047205;28;21086;-80
2022/12/13 13:52:18;;;;;;;20.47;11.70;;;0.80;99.90;;;;;;5044720;28;20236;-81
2022/12/13 13:55:39;;;;;;;19.47;11.70;;;0.80;99.90;;;;;;5048859;28;20220;-81
2022/12/13 13:59:13;;;;;;;18.00;12.00;;;0.60;99.90;;;;;;5058194;28;20224;-80
2022/12/13 14:02:34;;;;;;;20.60;12.13;;;0.90;99.90;;;;;;5047424;28;20623;-80
2022/12/13 14:06:03;;;;;;;19.37;12.60;;;0.70;99.90;;;;;;5025459;28;20878;-79
2022/12/13 14:09:12;;;;;;;22.73;13.30;;;0.70;99.90;;;;;;5056386;28;20220;-79
2022/12/13 14:12:42;;;;;;;25.03;14.00;;;0.60;99.90;;;;;;5040038;28;20597;-78
2022/12/13 14:16:03;;;;;;;21.10;12.83;;;0.60;99.90;;;;;;4984089;28;20631;-80
2022/12/13 14:19:25;;;;;;;24.67;13.67;;;0.50;99.90;;;;;;5010205;28;20233;-80
2022/12/13 14:22:24;;;;;;;22.87;13.43;;;0.40;99.90;;;;;;5037554;28;20228;-79
2022/12/13 14:25:29;;;;;;;20.87;13.27;;;0.30;99.90;;;;;;5038610;28;20224;-79
2022/12/13 14:28:27;;;;;;;21.43;13.60;;;0.40;99.90;;;;;;5043116;28;20813;-80
2022/12/13 14:31:21;;;;;;;25.50;13.53;;;0.20;99.90;;;;;;5051523;28;20264;-80
2022/12/13 14:34:20;;;;;;;21.53;13.27;;;0.30;99.90;;;;;;5035995;28;21039;-80
2022/12/13 14:37:22;;;;;;;22.83;13.23;;;0.20;99.90;;;;;;5053346;28;20846;-79
2022/12/13 14:40:25;;;;;;;25.13;14.23;;;0.20;99.90;;;;;;5036986;28;20223;-79
2022/12/13 14:43:23;;;;;;;24.77;13.17;;;0.20;99.90;;;;;;5037755;28;20224;-79
2022/12/13 14:46:15;;;;;;;23.43;13.10;;;0.10;99.90;;;;;;5050588;28;20220;-79
2022/12/13 14:49:04;;;;;;;23.63;13.10;;;0.20;99.90;;;;;;5037713;28;20304;-78
2022/12/13 14:52:00;;;;;;;21.43;13.07;;;0.10;99.90;;;;;;5035916;28;20225;-78
2022/12/13 14:54:54;;;;;;;22.67;13.83;;;0.10;99.90;;;;;;5037136;28;20373;-77
2022/12/13 14:57:52;;;;;;;21.90;13.37;;;0.00;99.90;;;;;;5038757;28;21209;-76
2022/12/13 15:00:42;;;;;;;22.50;13.87;;;0.20;99.90;;;;;;5048559;28;20573;-77
2022/12/13 15:03:31;;;;;;;26.23;13.80;;;0.20;99.90;;;;;;5056927;28;20224;-75